Bever, Belgium
Current Conditions -  °F | °C
As of 1:20 PM on Saturday 25 Oct 2014 (Local Time) from EBBR Reporting Station
Drizzle Drizzle  
Wind Chill: 55°   Ceiling: 800
Heat Index: 55°   Visibility: 4mi
Dew Point: 52°   Wind: 8mph
Humidity: 88%   Direction: 240°WSW
Pressure: 30.12"   Gusts: NA
Location:  50.92°N, 4.32°E
Report Text: EBBR 251120Z 24007KT 7000 -DZ FEW004 SCT006 BKN008 13/11 Q1020 NOSIG
Loading
Personal Weather Stations






























Interactive Weather Map
Tropical Storm Tracking
New forecast layout! Learn more

10-Day Weather Forecast

Advertisements
Track Severe Weather on mobile